sensor_id;sensor_type;location;lat;lon;timestamp;P1;durP1;ratioP1;P2;durP2;ratioP2
8964;SDS011;4517;49.020;12.066;2023-09-08T00:01:53;24.77;;;22.40;;
8964;SDS011;4517;49.020;12.066;2023-09-08T00:04:19;23.47;;;21.50;;
8964;SDS011;4517;49.020;12.066;2023-09-08T00:06:46;24.20;;;22.20;;
8964;SDS011;4517;49.020;12.066;2023-09-08T00:09:12;24.53;;;22.40;;
8964;SDS011;4517;49.020;12.066;2023-09-08T00:11:38;24.17;;;22.17;;
8964;SDS011;4517;49.020;12.066;2023-09-08T00:14:04;23.20;;;21.30;;
8964;SDS011;4517;49.020;12.066;2023-09-08T00:16:30;23.50;;;21.40;;
8964;SDS011;4517;49.020;12.066;2023-09-08T00:18:56;24.00;;;22.00;;
8964;SDS011;4517;49.020;12.066;2023-09-08T00:21:25;25.40;;;23.20;;
8964;SDS011;4517;49.020;12.066;2023-09-08T00:23:52;24.87;;;22.67;;
8964;SDS011;4517;49.020;12.066;2023-09-08T00:26:18;24.40;;;22.10;;
8964;SDS011;4517;49.020;12.066;2023-09-08T00:28:44;23.83;;;21.83;;
8964;SDS011;4517;49.020;12.066;2023-09-08T00:31:10;24.80;;;22.60;;
8964;SDS011;4517;49.020;12.066;2023-09-08T00:33:36;23.60;;;21.50;;
8964;SDS011;4517;49.020;12.066;2023-09-08T00:36:02;24.63;;;22.43;;
8964;SDS011;4517;49.020;12.066;2023-09-08T00:38:28;25.03;;;22.93;;
8964;SDS011;4517;49.020;12.066;2023-09-08T00:40:54;24.67;;;22.57;;
8964;SDS011;4517;49.020;12.066;2023-09-08T00:43:20;26.83;;;22.33;;
8964;SDS011;4517;49.020;12.066;2023-09-08T00:45:46;25.80;;;23.60;;
8964;SDS011;4517;49.020;12.066;2023-09-08T00:48:13;24.47;;;22.27;;
8964;SDS011;4517;49.020;12.066;2023-09-08T00:50:39;26.63;;;23.83;;
8964;SDS011;4517;49.020;12.066;2023-09-08T00:53:06;26.43;;;24.23;;
8964;SDS011;4517;49.020;12.066;2023-09-08T00:55:33;26.73;;;23.90;;
8964;SDS011;4517;49.020;12.066;2023-09-08T00:57:59;26.30;;;23.90;;
8964;SDS011;4517;49.020;12.066;2023-09-08T01:00:25;28.77;;;24.77;;
8964;SDS011;4517;49.020;12.066;2023-09-08T01:02:51;27.03;;;24.23;;
8964;SDS011;4517;49.020;12.066;2023-09-08T01:05:17;27.47;;;24.67;;
8964;SDS011;4517;49.020;12.066;2023-09-08T01:07:44;25.33;;;22.97;;
8964;SDS011;4517;49.020;12.066;2023-09-08T01:10:10;24.83;;;22.70;;
8964;SDS011;4517;49.020;12.066;2023-09-08T01:12:36;24.67;;;22.67;;
8964;SDS011;4517;49.020;12.066;2023-09-08T01:15:03;25.10;;;23.00;;
8964;SDS011;4517;49.020;12.066;2023-09-08T01:17:32;23.83;;;21.90;;
8964;SDS011;4517;49.020;12.066;2023-09-08T01:20:19;24.00;;;22.00;;
8964;SDS011;4517;49.020;12.066;2023-09-08T01:25:25;23.17;;;21.30;;
8964;SDS011;4517;49.020;12.066;2023-09-08T01:27:55;23.90;;;21.70;;
8964;SDS011;4517;49.020;12.066;2023-09-08T01:30:21;23.60;;;21.63;;
8964;SDS011;4517;49.020;12.066;2023-09-08T01:32:48;24.97;;;22.80;;
8964;SDS011;4517;49.020;12.066;2023-09-08T01:35:14;23.33;;;21.43;;
8964;SDS011;4517;49.020;12.066;2023-09-08T01:37:47;24.63;;;22.43;;
8964;SDS011;4517;49.020;12.066;2023-09-08T01:40:13;25.10;;;22.70;;
8964;SDS011;4517;49.020;12.066;2023-09-08T01:42:40;24.03;;;21.93;;
8964;SDS011;4517;49.020;12.066;2023-09-08T01:45:06;23.77;;;21.70;;
8964;SDS011;4517;49.020;12.066;2023-09-08T01:47:32;24.40;;;22.10;;
8964;SDS011;4517;49.020;12.066;2023-09-08T01:49:59;25.30;;;22.90;;
8964;SDS011;4517;49.020;12.066;2023-09-08T01:52:25;24.90;;;22.57;;
8964;SDS011;4517;49.020;12.066;2023-09-08T01:54:51;24.80;;;22.60;;
8964;SDS011;4517;49.020;12.066;2023-09-08T01:57:17;23.67;;;21.60;;
8964;SDS011;4517;49.020;12.066;2023-09-08T01:59:43;23.67;;;21.67;;
8964;SDS011;4517;49.020;12.066;2023-09-08T02:02:13;24.33;;;22.00;;
8964;SDS011;4517;49.020;12.066;2023-09-08T02:04:39;24.70;;;22.17;;
8964;SDS011;4517;49.020;12.066;2023-09-08T02:07:05;25.50;;;23.20;;
8964;SDS011;4517;49.020;12.066;2023-09-08T02:09:32;23.87;;;21.70;;
8964;SDS011;4517;49.020;12.066;2023-09-08T02:11:58;23.90;;;21.87;;
8964;SDS011;4517;49.020;12.066;2023-09-08T02:14:24;23.20;;;21.30;;
8964;SDS011;4517;49.020;12.066;2023-09-08T02:16:50;24.00;;;21.70;;
8964;SDS011;4517;49.020;12.066;2023-09-08T02:19:16;22.70;;;20.80;;
8964;SDS011;4517;49.020;12.066;2023-09-08T02:21:42;23.57;;;21.50;;
8964;SDS011;4517;49.020;12.066;2023-09-08T02:24:08;23.30;;;21.50;;
8964;SDS011;4517;49.020;12.066;2023-09-08T02:26:34;22.60;;;20.60;;
8964;SDS011;4517;49.020;12.066;2023-09-08T02:29:00;24.83;;;22.73;;
8964;SDS011;4517;49.020;12.066;2023-09-08T02:31:27;24.00;;;21.80;;
8964;SDS011;4517;49.020;12.066;2023-09-08T02:33:53;23.90;;;21.93;;
8964;SDS011;4517;49.020;12.066;2023-09-08T02:36:19;26.57;;;23.80;;
8964;SDS011;4517;49.020;12.066;2023-09-08T02:38:51;24.97;;;23.07;;
8964;SDS011;4517;49.020;12.066;2023-09-08T02:41:17;25.23;;;23.03;;
8964;SDS011;4517;49.020;12.066;2023-09-08T02:43:43;25.30;;;23.10;;
8964;SDS011;4517;49.020;12.066;2023-09-08T02:46:09;26.30;;;23.97;;
8964;SDS011;4517;49.020;12.066;2023-09-08T02:48:35;25.17;;;22.93;;
8964;SDS011;4517;49.020;12.066;2023-09-08T02:51:01;26.47;;;22.40;;
8964;SDS011;4517;49.020;12.066;2023-09-08T02:53:27;25.27;;;23.07;;
8964;SDS011;4517;49.020;12.066;2023-09-08T02:55:57;24.50;;;22.40;;
8964;SDS011;4517;49.020;12.066;2023-09-08T02:58:23;25.63;;;23.33;;
8964;SDS011;4517;49.020;12.066;2023-09-08T03:00:49;25.67;;;23.30;;
8964;SDS011;4517;49.020;12.066;2023-09-08T03:03:17;24.90;;;22.40;;
8964;SDS011;4517;49.020;12.066;2023-09-08T03:05:43;24.57;;;22.43;;
8964;SDS011;4517;49.020;12.066;2023-09-08T03:08:08;24.50;;;22.40;;
8964;SDS011;4517;49.020;12.066;2023-09-08T03:10:34;25.80;;;23.30;;
8964;SDS011;4517;49.020;12.066;2023-09-08T03:13:01;24.27;;;22.07;;
8964;SDS011;4517;49.020;12.066;2023-09-08T03:15:27;24.67;;;22.27;;
8964;SDS011;4517;49.020;12.066;2023-09-08T03:17:56;25.00;;;22.80;;
8964;SDS011;4517;49.020;12.066;2023-09-08T03:20:23;25.73;;;23.23;;
8964;SDS011;4517;49.020;12.066;2023-09-08T03:22:50;27.10;;;24.40;;
8964;SDS011;4517;49.020;12.066;2023-09-08T03:25:16;26.50;;;24.10;;
8964;SDS011;4517;49.020;12.066;2023-09-08T03:27:42;26.50;;;24.10;;
8964;SDS011;4517;49.020;12.066;2023-09-08T03:30:08;26.07;;;23.77;;
8964;SDS011;4517;49.020;12.066;2023-09-08T03:32:35;27.03;;;24.60;;
8964;SDS011;4517;49.020;12.066;2023-09-08T03:35:01;26.50;;;24.20;;
8964;SDS011;4517;49.020;12.066;2023-09-08T03:37:28;25.23;;;23.03;;
8964;SDS011;4517;49.020;12.066;2023-09-08T03:39:54;26.50;;;24.20;;
8964;SDS011;4517;49.020;12.066;2023-09-08T03:42:20;26.50;;;23.90;;
8964;SDS011;4517;49.020;12.066;2023-09-08T03:44:46;27.13;;;24.33;;
8964;SDS011;4517;49.020;12.066;2023-09-08T03:47:12;25.87;;;23.17;;
8964;SDS011;4517;49.020;12.066;2023-09-08T03:49:38;25.73;;;23.23;;
8964;SDS011;4517;49.020;12.066;2023-09-08T03:52:04;25.67;;;23.23;;
8964;SDS011;4517;49.020;12.066;2023-09-08T03:54:30;26.70;;;24.37;;
8964;SDS011;4517;49.020;12.066;2023-09-08T03:56:56;25.80;;;23.60;;
8964;SDS011;4517;49.020;12.066;2023-09-08T03:59:22;26.23;;;23.83;;
8964;SDS011;4517;49.020;12.066;2023-09-08T04:01:48;26.87;;;24.40;;
8964;SDS011;4517;49.020;12.066;2023-09-08T04:04:14;28.77;;;24.50;;
8964;SDS011;4517;49.020;12.066;2023-09-08T04:06:41;28.50;;;25.50;;
8964;SDS011;4517;49.020;12.066;2023-09-08T04:09:07;28.80;;;26.20;;
8964;SDS011;4517;49.020;12.066;2023-09-08T04:11:33;27.93;;;25.37;;
8964;SDS011;4517;49.020;12.066;2023-09-08T04:13:59;30.13;;;27.20;;
8964;SDS011;4517;49.020;12.066;2023-09-08T04:16:25;28.03;;;25.30;;
8964;SDS011;4517;49.020;12.066;2023-09-08T04:18:51;28.90;;;26.40;;
8964;SDS011;4517;49.020;12.066;2023-09-08T04:21:17;27.33;;;24.93;;
8964;SDS011;4517;49.020;12.066;2023-09-08T04:23:43;25.70;;;23.27;;
8964;SDS011;4517;49.020;12.066;2023-09-08T04:26:09;26.07;;;23.47;;
8964;SDS011;4517;49.020;12.066;2023-09-08T04:28:36;26.60;;;24.00;;
8964;SDS011;4517;49.020;12.066;2023-09-08T04:31:02;28.40;;;24.87;;
8964;SDS011;4517;49.020;12.066;2023-09-08T04:33:29;26.23;;;23.83;;
8964;SDS011;4517;49.020;12.066;2023-09-08T04:35:55;24.57;;;22.47;;
8964;SDS011;4517;49.020;12.066;2023-09-08T04:38:21;27.67;;;25.07;;
8964;SDS011;4517;49.020;12.066;2023-09-08T04:40:47;28.43;;;26.00;;
8964;SDS011;4517;49.020;12.066;2023-09-08T04:43:13;27.40;;;24.60;;
8964;SDS011;4517;49.020;12.066;2023-09-08T04:45:39;26.77;;;24.20;;
8964;SDS011;4517;49.020;12.066;2023-09-08T04:48:06;26.30;;;23.93;;
8964;SDS011;4517;49.020;12.066;2023-09-08T04:50:32;27.13;;;24.43;;
8964;SDS011;4517;49.020;12.066;2023-09-08T04:52:58;27.20;;;24.60;;
8964;SDS011;4517;49.020;12.066;2023-09-08T04:55:24;29.53;;;26.73;;
8964;SDS011;4517;49.020;12.066;2023-09-08T04:57:49;26.23;;;23.63;;
8964;SDS011;4517;49.020;12.066;2023-09-08T05:00:15;25.83;;;22.37;;
8964;SDS011;4517;49.020;12.066;2023-09-08T05:02:42;24.40;;;22.00;;
8964;SDS011;4517;49.020;12.066;2023-09-08T05:05:08;24.30;;;22.00;;
8964;SDS011;4517;49.020;12.066;2023-09-08T05:07:34;23.97;;;21.40;;
8964;SDS011;4517;49.020;12.066;2023-09-08T05:10:00;23.00;;;21.00;;
8964;SDS011;4517;49.020;12.066;2023-09-08T05:12:26;22.13;;;20.37;;
8964;SDS011;4517;49.020;12.066;2023-09-08T05:14:52;23.00;;;20.20;;
8964;SDS011;4517;49.020;12.066;2023-09-08T05:17:22;21.27;;;19.40;;
8964;SDS011;4517;49.020;12.066;2023-09-08T05:19:48;23.40;;;21.40;;
8964;SDS011;4517;49.020;12.066;2023-09-08T05:22:14;23.33;;;21.10;;
8964;SDS011;4517;49.020;12.066;2023-09-08T05:24:40;21.07;;;19.47;;
8964;SDS011;4517;49.020;12.066;2023-09-08T05:27:06;22.80;;;20.50;;
8964;SDS011;4517;49.020;12.066;2023-09-08T05:29:32;21.37;;;19.70;;
8964;SDS011;4517;49.020;12.066;2023-09-08T05:31:58;20.90;;;18.97;;
8964;SDS011;4517;49.020;12.066;2023-09-08T05:34:24;20.27;;;18.67;;
8964;SDS011;4517;49.020;12.066;2023-09-08T05:36:50;20.80;;;19.00;;
8964;SDS011;4517;49.020;12.066;2023-09-08T05:39:16;20.70;;;18.97;;
8964;SDS011;4517;49.020;12.066;2023-09-08T05:41:44;20.67;;;18.80;;
8964;SDS011;4517;49.020;12.066;2023-09-08T05:44:10;21.10;;;19.23;;
8964;SDS011;4517;49.020;12.066;2023-09-08T05:46:36;21.20;;;19.30;;
8964;SDS011;4517;49.020;12.066;2023-09-08T05:49:02;21.67;;;19.90;;
8964;SDS011;4517;49.020;12.066;2023-09-08T05:51:28;21.77;;;19.53;;
8964;SDS011;4517;49.020;12.066;2023-09-08T05:53:55;21.67;;;19.87;;
8964;SDS011;4517;49.020;12.066;2023-09-08T05:56:23;22.73;;;20.87;;
8964;SDS011;4517;49.020;12.066;2023-09-08T05:58:50;22.37;;;20.23;;
8964;SDS011;4517;49.020;12.066;2023-09-08T06:01:15;21.50;;;19.80;;
8964;SDS011;4517;49.020;12.066;2023-09-08T06:03:41;23.00;;;21.10;;
8964;SDS011;4517;49.020;12.066;2023-09-08T06:06:07;23.07;;;21.07;;
8964;SDS011;4517;49.020;12.066;2023-09-08T06:08:33;23.47;;;21.27;;
8964;SDS011;4517;49.020;12.066;2023-09-08T06:10:59;23.00;;;21.00;;
8964;SDS011;4517;49.020;12.066;2023-09-08T06:13:25;24.50;;;22.20;;
8964;SDS011;4517;49.020;12.066;2023-09-08T06:15:51;24.87;;;22.40;;
8964;SDS011;4517;49.020;12.066;2023-09-08T06:18:17;24.27;;;22.03;;
8964;SDS011;4517;49.020;12.066;2023-09-08T06:20:44;23.57;;;21.20;;
8964;SDS011;4517;49.020;12.066;2023-09-08T06:23:10;22.80;;;20.70;;
8964;SDS011;4517;49.020;12.066;2023-09-08T06:25:36;22.33;;;20.57;;
8964;SDS011;4517;49.020;12.066;2023-09-08T06:28:02;25.33;;;22.00;;
8964;SDS011;4517;49.020;12.066;2023-09-08T06:30:28;23.27;;;21.03;;
8964;SDS011;4517;49.020;12.066;2023-09-08T06:32:54;22.00;;;20.10;;
8964;SDS011;4517;49.020;12.066;2023-09-08T06:35:20;22.30;;;20.20;;
8964;SDS011;4517;49.020;12.066;2023-09-08T06:37:46;24.30;;;22.20;;
8964;SDS011;4517;49.020;12.066;2023-09-08T06:40:12;21.03;;;19.23;;
8964;SDS011;4517;49.020;12.066;2023-09-08T06:42:38;21.77;;;20.17;;
8964;SDS011;4517;49.020;12.066;2023-09-08T06:45:04;22.10;;;20.03;;
8964;SDS011;4517;49.020;12.066;2023-09-08T06:47:30;21.80;;;20.10;;
8964;SDS011;4517;49.020;12.066;2023-09-08T06:49:56;21.37;;;19.70;;
8964;SDS011;4517;49.020;12.066;2023-09-08T06:52:22;21.43;;;19.73;;
8964;SDS011;4517;49.020;12.066;2023-09-08T06:54:48;20.40;;;18.80;;
8964;SDS011;4517;49.020;12.066;2023-09-08T06:57:14;21.50;;;19.80;;
8964;SDS011;4517;49.020;12.066;2023-09-08T06:59:41;22.20;;;20.20;;
8964;SDS011;4517;49.020;12.066;2023-09-08T07:02:07;21.57;;;19.80;;
8964;SDS011;4517;49.020;12.066;2023-09-08T07:04:33;22.17;;;19.97;;
8964;SDS011;4517;49.020;12.066;2023-09-08T07:06:59;22.67;;;20.63;;
8964;SDS011;4517;49.020;12.066;2023-09-08T07:09:28;21.80;;;20.07;;
8964;SDS011;4517;49.020;12.066;2023-09-08T07:11:54;22.37;;;20.67;;
8964;SDS011;4517;49.020;12.066;2023-09-08T07:14:20;31.97;;;29.17;;
8964;SDS011;4517;49.020;12.066;2023-09-08T07:16:46;21.20;;;19.60;;
8964;SDS011;4517;49.020;12.066;2023-09-08T07:19:12;22.13;;;20.20;;
8964;SDS011;4517;49.020;12.066;2023-09-08T07:21:38;22.00;;;20.40;;
8964;SDS011;4517;49.020;12.066;2023-09-08T07:24:04;20.57;;;19.03;;
8964;SDS011;4517;49.020;12.066;2023-09-08T07:26:30;21.70;;;19.80;;
8964;SDS011;4517;49.020;12.066;2023-09-08T07:28:56;23.93;;;21.50;;
8964;SDS011;4517;49.020;12.066;2023-09-08T07:31:22;21.90;;;20.00;;
8964;SDS011;4517;49.020;12.066;2023-09-08T07:33:48;22.93;;;20.90;;
8964;SDS011;4517;49.020;12.066;2023-09-08T07:36:14;22.07;;;20.27;;
8964;SDS011;4517;49.020;12.066;2023-09-08T07:38:40;22.33;;;20.50;;
8964;SDS011;4517;49.020;12.066;2023-09-08T07:41:06;28.93;;;26.60;;
8964;SDS011;4517;49.020;12.066;2023-09-08T07:43:32;22.50;;;20.33;;
8964;SDS011;4517;49.020;12.066;2023-09-08T07:45:58;21.77;;;20.07;;
8964;SDS011;4517;49.020;12.066;2023-09-08T07:48:25;23.07;;;20.93;;
8964;SDS011;4517;49.020;12.066;2023-09-08T07:50:51;22.63;;;20.83;;
8964;SDS011;4517;49.020;12.066;2023-09-08T07:53:17;21.67;;;19.77;;
8964;SDS011;4517;49.020;12.066;2023-09-08T07:55:43;21.17;;;19.57;;
8964;SDS011;4517;49.020;12.066;2023-09-08T07:58:09;22.00;;;20.30;;
8964;SDS011;4517;49.020;12.066;2023-09-08T08:00:35;22.03;;;19.83;;
8964;SDS011;4517;49.020;12.066;2023-09-08T08:03:00;20.60;;;18.80;;
8964;SDS011;4517;49.020;12.066;2023-09-08T08:05:27;21.63;;;19.70;;
8964;SDS011;4517;49.020;12.066;2023-09-08T08:07:53;22.80;;;20.60;;
8964;SDS011;4517;49.020;12.066;2023-09-08T08:10:19;21.60;;;20.00;;
8964;SDS011;4517;49.020;12.066;2023-09-08T08:12:45;20.93;;;19.30;;
8964;SDS011;4517;49.020;12.066;2023-09-08T08:15:11;21.50;;;20.00;;
8964;SDS011;4517;49.020;12.066;2023-09-08T08:17:37;22.40;;;20.70;;
8964;SDS011;4517;49.020;12.066;2023-09-08T08:20:07;21.77;;;19.77;;
8964;SDS011;4517;49.020;12.066;2023-09-08T08:22:34;22.00;;;20.40;;
8964;SDS011;4517;49.020;12.066;2023-09-08T08:25:00;21.10;;;19.20;;
8964;SDS011;4517;49.020;12.066;2023-09-08T08:27:26;22.50;;;20.50;;
8964;SDS011;4517;49.020;12.066;2023-09-08T08:29:52;23.10;;;20.93;;
8964;SDS011;4517;49.020;12.066;2023-09-08T08:32:18;22.13;;;20.13;;
8964;SDS011;4517;49.020;12.066;2023-09-08T08:34:44;21.67;;;19.97;;
8964;SDS011;4517;49.020;12.066;2023-09-08T08:37:10;22.47;;;20.27;;
8964;SDS011;4517;49.020;12.066;2023-09-08T08:39:36;21.33;;;19.43;;
8964;SDS011;4517;49.020;12.066;2023-09-08T08:42:06;22.20;;;20.20;;
8964;SDS011;4517;49.020;12.066;2023-09-08T08:44:33;23.20;;;21.40;;
8964;SDS011;4517;49.020;12.066;2023-09-08T08:46:59;22.33;;;20.13;;
8964;SDS011;4517;49.020;12.066;2023-09-08T08:49:26;19.93;;;18.03;;
8964;SDS011;4517;49.020;12.066;2023-09-08T08:51:53;23.53;;;20.97;;
8964;SDS011;4517;49.020;12.066;2023-09-08T08:54:19;21.53;;;19.63;;
8964;SDS011;4517;49.020;12.066;2023-09-08T08:56:45;21.70;;;19.90;;
8964;SDS011;4517;49.020;12.066;2023-09-08T08:59:11;22.10;;;20.10;;
8964;SDS011;4517;49.020;12.066;2023-09-08T09:01:37;30.50;;;20.83;;
8964;SDS011;4517;49.020;12.066;2023-09-08T09:04:04;20.53;;;18.60;;
8964;SDS011;4517;49.020;12.066;2023-09-08T09:06:31;20.70;;;19.10;;
8964;SDS011;4517;49.020;12.066;2023-09-08T09:08:57;21.60;;;19.80;;
8964;SDS011;4517;49.020;12.066;2023-09-08T09:11:24;22.43;;;20.53;;
8964;SDS011;4517;49.020;12.066;2023-09-08T09:13:50;20.20;;;18.60;;
8964;SDS011;4517;49.020;12.066;2023-09-08T09:16:16;20.53;;;19.00;;
8964;SDS011;4517;49.020;12.066;2023-09-08T09:18:53;20.50;;;18.87;;
8964;SDS011;4517;49.020;12.066;2023-09-08T09:21:20;21.20;;;19.50;;
8964;SDS011;4517;49.020;12.066;2023-09-08T09:23:46;21.07;;;19.37;;
8964;SDS011;4517;49.020;12.066;2023-09-08T09:26:22;21.83;;;20.10;;
8964;SDS011;4517;49.020;12.066;2023-09-08T09:28:48;21.23;;;19.57;;
8964;SDS011;4517;49.020;12.066;2023-09-08T09:31:17;21.70;;;19.80;;
8964;SDS011;4517;49.020;12.066;2023-09-08T09:33:43;21.47;;;19.70;;
8964;SDS011;4517;49.020;12.066;2023-09-08T09:36:09;20.90;;;19.20;;
8964;SDS011;4517;49.020;12.066;2023-09-08T09:38:35;22.57;;;20.77;;
8964;SDS011;4517;49.020;12.066;2023-09-08T09:41:01;22.37;;;20.47;;
8964;SDS011;4517;49.020;12.066;2023-09-08T09:43:27;20.47;;;18.67;;
8964;SDS011;4517;49.020;12.066;2023-09-08T09:45:54;22.80;;;21.00;;
8964;SDS011;4517;49.020;12.066;2023-09-08T09:48:21;21.47;;;19.77;;
8964;SDS011;4517;49.020;12.066;2023-09-08T09:50:48;20.37;;;18.33;;
8964;SDS011;4517;49.020;12.066;2023-09-08T09:53:15;22.17;;;20.47;;
8964;SDS011;4517;49.020;12.066;2023-09-08T09:55:42;22.70;;;20.73;;
8964;SDS011;4517;49.020;12.066;2023-09-08T09:58:08;21.33;;;19.73;;
8964;SDS011;4517;49.020;12.066;2023-09-08T10:00:35;21.70;;;20.00;;
8964;SDS011;4517;49.020;12.066;2023-09-08T10:03:13;22.00;;;19.83;;
8964;SDS011;4517;49.020;12.066;2023-09-08T10:05:39;21.50;;;19.60;;
8964;SDS011;4517;49.020;12.066;2023-09-08T10:08:05;20.53;;;19.03;;
8964;SDS011;4517;49.020;12.066;2023-09-08T10:10:32;19.97;;;18.33;;
8964;SDS011;4517;49.020;12.066;2023-09-08T10:13:01;19.70;;;18.10;;
8964;SDS011;4517;49.020;12.066;2023-09-08T10:15:28;20.23;;;18.63;;
8964;SDS011;4517;49.020;12.066;2023-09-08T10:17:55;21.20;;;19.23;;
8964;SDS011;4517;49.020;12.066;2023-09-08T10:20:26;21.57;;;19.50;;
8964;SDS011;4517;49.020;12.066;2023-09-08T10:22:53;20.83;;;19.30;;
8964;SDS011;4517;49.020;12.066;2023-09-08T10:25:20;21.37;;;19.47;;
8964;SDS011;4517;49.020;12.066;2023-09-08T10:27:47;21.63;;;19.93;;
8964;SDS011;4517;49.020;12.066;2023-09-08T10:30:13;19.00;;;17.60;;
8964;SDS011;4517;49.020;12.066;2023-09-08T10:32:41;20.67;;;18.93;;
8964;SDS011;4517;49.020;12.066;2023-09-08T10:35:08;21.80;;;20.20;;
8964;SDS011;4517;49.020;12.066;2023-09-08T10:37:34;22.50;;;20.27;;
8964;SDS011;4517;49.020;12.066;2023-09-08T10:42:45;20.90;;;19.27;;
8964;SDS011;4517;49.020;12.066;2023-09-08T10:45:18;19.87;;;18.47;;
8964;SDS011;4517;49.020;12.066;2023-09-08T10:50:17;21.53;;;19.80;;
8964;SDS011;4517;49.020;12.066;2023-09-08T10:52:44;20.77;;;19.17;;
8964;SDS011;4517;49.020;12.066;2023-09-08T10:55:11;22.20;;;20.40;;
8964;SDS011;4517;49.020;12.066;2023-09-08T10:57:37;20.73;;;18.90;;
8964;SDS011;4517;49.020;12.066;2023-09-08T11:00:04;22.93;;;20.67;;
8964;SDS011;4517;49.020;12.066;2023-09-08T11:02:40;23.00;;;20.03;;
8964;SDS011;4517;49.020;12.066;2023-09-08T11:05:13;20.73;;;19.00;;
8964;SDS011;4517;49.020;12.066;2023-09-08T11:07:40;20.83;;;19.30;;
8964;SDS011;4517;49.020;12.066;2023-09-08T11:10:06;22.67;;;21.07;;
8964;SDS011;4517;49.020;12.066;2023-09-08T11:12:33;22.00;;;20.40;;
8964;SDS011;4517;49.020;12.066;2023-09-08T11:14:59;21.97;;;20.07;;
8964;SDS011;4517;49.020;12.066;2023-09-08T11:17:29;20.90;;;19.00;;
8964;SDS011;4517;49.020;12.066;2023-09-08T11:19:55;19.30;;;17.70;;
8964;SDS011;4517;49.020;12.066;2023-09-08T11:22:22;19.50;;;18.03;;
8964;SDS011;4517;49.020;12.066;2023-09-08T11:24:56;21.53;;;19.77;;
8964;SDS011;4517;49.020;12.066;2023-09-08T11:27:22;21.00;;;19.40;;
8964;SDS011;4517;49.020;12.066;2023-09-08T11:29:49;19.90;;;18.50;;
8964;SDS011;4517;49.020;12.066;2023-09-08T11:32:16;22.33;;;20.63;;
8964;SDS011;4517;49.020;12.066;2023-09-08T11:34:42;18.93;;;17.53;;
8964;SDS011;4517;49.020;12.066;2023-09-08T11:37:10;20.80;;;19.30;;
8964;SDS011;4517;49.020;12.066;2023-09-08T11:39:38;21.00;;;19.17;;
8964;SDS011;4517;49.020;12.066;2023-09-08T11:42:04;22.33;;;20.23;;
8964;SDS011;4517;49.020;12.066;2023-09-08T11:44:30;22.17;;;20.40;;
8964;SDS011;4517;49.020;12.066;2023-09-08T11:46:57;19.77;;;18.07;;
8964;SDS011;4517;49.020;12.066;2023-09-08T11:49:24;20.20;;;18.77;;
8964;SDS011;4517;49.020;12.066;2023-09-08T11:51:50;20.70;;;19.10;;
8964;SDS011;4517;49.020;12.066;2023-09-08T11:54:16;21.77;;;20.13;;
8964;SDS011;4517;49.020;12.066;2023-09-08T11:56:43;21.90;;;19.20;;
8964;SDS011;4517;49.020;12.066;2023-09-08T11:59:10;22.57;;;20.77;;
8964;SDS011;4517;49.020;12.066;2023-09-08T12:01:37;21.17;;;19.47;;
8964;SDS011;4517;49.020;12.066;2023-09-08T12:04:03;20.43;;;18.83;;
8964;SDS011;4517;49.020;12.066;2023-09-08T12:06:29;20.60;;;19.10;;
8964;SDS011;4517;49.020;12.066;2023-09-08T12:08:55;21.07;;;19.40;;
8964;SDS011;4517;49.020;12.066;2023-09-08T12:11:21;21.30;;;19.70;;
8964;SDS011;4517;49.020;12.066;2023-09-08T12:13:47;22.73;;;20.30;;
8964;SDS011;4517;49.020;12.066;2023-09-08T12:16:17;21.70;;;19.60;;
8964;SDS011;4517;49.020;12.066;2023-09-08T12:18:43;21.10;;;19.50;;
8964;SDS011;4517;49.020;12.066;2023-09-08T12:21:10;20.00;;;18.60;;
8964;SDS011;4517;49.020;12.066;2023-09-08T12:23:49;21.93;;;20.10;;
8964;SDS011;4517;49.020;12.066;2023-09-08T12:26:16;21.33;;;19.70;;
8964;SDS011;4517;49.020;12.066;2023-09-08T12:28:42;22.20;;;20.50;;
8964;SDS011;4517;49.020;12.066;2023-09-08T12:31:08;20.10;;;18.40;;
8964;SDS011;4517;49.020;12.066;2023-09-08T12:33:34;21.50;;;19.90;;
8964;SDS011;4517;49.020;12.066;2023-09-08T12:36:10;21.53;;;19.93;;
8964;SDS011;4517;49.020;12.066;2023-09-08T12:38:38;22.23;;;20.47;;
8964;SDS011;4517;49.020;12.066;2023-09-08T12:41:04;21.93;;;20.33;;
8964;SDS011;4517;49.020;12.066;2023-09-08T12:43:30;21.23;;;19.63;;
8964;SDS011;4517;49.020;12.066;2023-09-08T12:45:56;20.67;;;18.97;;
8964;SDS011;4517;49.020;12.066;2023-09-08T12:48:22;21.33;;;19.20;;
8964;SDS011;4517;49.020;12.066;2023-09-08T12:50:48;21.60;;;20.00;;
8964;SDS011;4517;49.020;12.066;2023-09-08T12:53:14;21.83;;;20.00;;
8964;SDS011;4517;49.020;12.066;2023-09-08T12:55:42;20.93;;;19.37;;
8964;SDS011;4517;49.020;12.066;2023-09-08T12:58:08;22.67;;;20.67;;
8964;SDS011;4517;49.020;12.066;2023-09-08T13:00:34;22.90;;;20.97;;
8964;SDS011;4517;49.020;12.066;2023-09-08T13:03:00;21.13;;;19.37;;
8964;SDS011;4517;49.020;12.066;2023-09-08T13:05:27;22.00;;;20.30;;
8964;SDS011;4517;49.020;12.066;2023-09-08T13:07:53;21.07;;;19.37;;
8964;SDS011;4517;49.020;12.066;2023-09-08T13:10:19;22.33;;;20.53;;
8964;SDS011;4517;49.020;12.066;2023-09-08T13:12:45;21.50;;;20.00;;
8964;SDS011;4517;49.020;12.066;2023-09-08T13:15:13;21.47;;;19.67;;
8964;SDS011;4517;49.020;12.066;2023-09-08T13:17:39;22.10;;;20.30;;
8964;SDS011;4517;49.020;12.066;2023-09-08T13:20:05;21.10;;;19.50;;
8964;SDS011;4517;49.020;12.066;2023-09-08T13:22:31;21.90;;;20.00;;
8964;SDS011;4517;49.020;12.066;2023-09-08T13:24:57;21.77;;;20.17;;
8964;SDS011;4517;49.020;12.066;2023-09-08T13:27:23;21.67;;;19.83;;
8964;SDS011;4517;49.020;12.066;2023-09-08T13:29:49;22.07;;;20.47;;
8964;SDS011;4517;49.020;12.066;2023-09-08T13:32:15;21.30;;;19.50;;
8964;SDS011;4517;49.020;12.066;2023-09-08T13:34:41;21.50;;;19.80;;
8964;SDS011;4517;49.020;12.066;2023-09-08T13:37:08;20.67;;;19.10;;
8964;SDS011;4517;49.020;12.066;2023-09-08T13:39:34;21.90;;;20.07;;
8964;SDS011;4517;49.020;12.066;2023-09-08T13:42:00;22.30;;;20.47;;
8964;SDS011;4517;49.020;12.066;2023-09-08T13:44:27;21.97;;;20.00;;
8964;SDS011;4517;49.020;12.066;2023-09-08T13:46:53;21.13;;;19.53;;
8964;SDS011;4517;49.020;12.066;2023-09-08T13:49:20;21.60;;;19.80;;
8964;SDS011;4517;49.020;12.066;2023-09-08T13:51:46;21.57;;;19.87;;
8964;SDS011;4517;49.020;12.066;2023-09-08T13:54:12;21.50;;;19.70;;
8964;SDS011;4517;49.020;12.066;2023-09-08T13:56:38;20.43;;;18.83;;
8964;SDS011;4517;49.020;12.066;2023-09-08T13:59:04;21.03;;;19.27;;
8964;SDS011;4517;49.020;12.066;2023-09-08T14:01:32;21.37;;;19.57;;
8964;SDS011;4517;49.020;12.066;2023-09-08T14:03:58;20.07;;;18.37;;
8964;SDS011;4517;49.020;12.066;2023-09-08T14:06:25;21.43;;;19.87;;
8964;SDS011;4517;49.020;12.066;2023-09-08T14:08:51;20.50;;;18.80;;
8964;SDS011;4517;49.020;12.066;2023-09-08T14:11:17;20.50;;;18.70;;
8964;SDS011;4517;49.020;12.066;2023-09-08T14:13:43;21.03;;;19.37;;
8964;SDS011;4517;49.020;12.066;2023-09-08T14:16:10;22.03;;;19.00;;
8964;SDS011;4517;49.020;12.066;2023-09-08T14:18:37;21.17;;;19.00;;
8964;SDS011;4517;49.020;12.066;2023-09-08T14:21:04;19.97;;;18.57;;
8964;SDS011;4517;49.020;12.066;2023-09-08T14:23:29;20.13;;;18.37;;
8964;SDS011;4517;49.020;12.066;2023-09-08T14:25:56;19.27;;;17.87;;
8964;SDS011;4517;49.020;12.066;2023-09-08T14:28:22;19.57;;;17.87;;
8964;SDS011;4517;49.020;12.066;2023-09-08T14:30:49;20.77;;;19.27;;
8964;SDS011;4517;49.020;12.066;2023-09-08T14:33:15;20.87;;;18.80;;
8964;SDS011;4517;49.020;12.066;2023-09-08T14:35:42;20.00;;;18.30;;
8964;SDS011;4517;49.020;12.066;2023-09-08T14:38:08;19.67;;;18.13;;